createdAt,value
2019-05-28T00:01:49.346Z,13.97
2019-05-28T00:04:18.192Z,13.90
2019-05-28T00:06:47.043Z,13.85
2019-05-28T00:09:15.998Z,13.80
2019-05-28T00:11:44.918Z,13.75
2019-05-28T00:14:13.762Z,13.69
2019-05-28T00:16:43.011Z,13.65
2019-05-28T00:19:11.845Z,13.61
2019-05-28T00:21:40.681Z,13.57
2019-05-28T00:24:09.976Z,13.54
2019-05-28T00:26:39.168Z,13.54
2019-05-28T00:29:08.345Z,13.55
2019-05-28T00:31:37.572Z,13.60
2019-05-28T00:34:06.883Z,13.61
2019-05-28T00:36:35.898Z,13.63
2019-05-28T00:39:06.930Z,13.65
2019-05-28T00:41:36.397Z,13.67
2019-05-28T00:44:05.749Z,13.73
2019-05-28T00:46:34.596Z,13.79
2019-05-28T00:49:03.544Z,13.81
2019-05-28T00:51:33.318Z,13.83
2019-05-28T00:54:02.160Z,13.86
2019-05-28T00:56:32.010Z,13.88
2019-05-28T00:59:01.311Z,13.89
2019-05-28T01:01:30.249Z,13.89
2019-05-28T01:03:59.194Z,13.89
2019-05-28T01:06:28.595Z,13.91
2019-05-28T01:08:57.848Z,13.92
2019-05-28T01:11:26.638Z,13.94
2019-05-28T01:13:55.775Z,13.92
2019-05-28T01:16:24.948Z,13.95
2019-05-28T01:18:53.985Z,13.97
2019-05-28T01:21:22.858Z,13.98
2019-05-28T01:23:51.718Z,13.98
2019-05-28T01:26:20.684Z,14.00
2019-05-28T01:28:50.144Z,14.02
2019-05-28T01:31:19.058Z,14.03
2019-05-28T01:33:47.940Z,14.02
2019-05-28T01:36:17.154Z,14.01
2019-05-28T01:38:46.417Z,13.99
2019-05-28T01:41:15.288Z,13.98
2019-05-28T01:43:44.532Z,13.98
2019-05-28T01:46:13.431Z,13.97
2019-05-28T01:48:42.610Z,13.97
2019-05-28T01:51:11.896Z,13.97
2019-05-28T01:53:40.806Z,13.96
2019-05-28T01:56:09.647Z,13.97
2019-05-28T01:58:38.462Z,13.98
2019-05-28T02:01:12.822Z,13.98
2019-05-28T02:03:37.986Z,13.99
2019-05-28T02:06:07.023Z,14.01
2019-05-28T02:08:35.969Z,14.01
2019-05-28T02:11:04.960Z,14.01
2019-05-28T02:13:33.763Z,14.01
2019-05-28T02:16:02.624Z,14.02
2019-05-28T02:18:31.447Z,14.00
2019-05-28T02:21:00.618Z,13.98
2019-05-28T02:23:29.585Z,13.93
2019-05-28T02:25:58.441Z,13.91
2019-05-28T02:28:28.046Z,13.93
2019-05-28T02:30:57.227Z,13.92
2019-05-28T02:33:26.090Z,13.90
2019-05-28T02:35:55.201Z,13.90
2019-05-28T02:38:24.165Z,13.90
2019-05-28T02:40:53.271Z,13.91
2019-05-28T02:43:22.285Z,13.90
2019-05-28T02:45:51.171Z,13.89
2019-05-28T02:48:20.020Z,13.88
2019-05-28T02:50:58.102Z,13.88
2019-05-28T02:53:27.470Z,13.88
2019-05-28T02:55:57.612Z,13.88
2019-05-28T02:58:36.625Z,13.90
2019-05-28T03:01:08.999Z,13.88
2019-05-28T03:03:37.899Z,13.86
2019-05-28T03:06:11.373Z,13.84
2019-05-28T03:08:40.330Z,13.83
2019-05-28T03:11:09.130Z,13.80
2019-05-28T03:13:38.365Z,13.80
2019-05-28T03:16:08.364Z,13.79
2019-05-28T03:18:38.911Z,13.79
2019-05-28T03:21:09.271Z,13.77
2019-05-28T03:23:39.590Z,13.77
2019-05-28T03:26:08.591Z,13.76
2019-05-28T03:28:37.788Z,13.76
2019-05-28T03:31:07.156Z,13.74
2019-05-28T03:33:36.161Z,13.74
2019-05-28T03:36:05.211Z,13.76
2019-05-28T03:38:34.530Z,13.76
2019-05-28T03:41:03.757Z,13.77
2019-05-28T03:43:32.603Z,13.78
2019-05-28T03:46:01.494Z,13.78
2019-05-28T03:48:30.325Z,13.79
2019-05-28T03:50:59.607Z,13.78
2019-05-28T03:53:28.500Z,13.80
2019-05-28T03:55:57.411Z,13.83
2019-05-28T03:58:26.333Z,13.86
2019-05-28T04:00:55.247Z,13.86
2019-05-28T04:03:24.218Z,13.86
2019-05-28T04:05:53.087Z,13.86
2019-05-28T04:08:21.998Z,13.85
2019-05-28T04:10:51.452Z,13.88
2019-05-28T04:13:20.466Z,13.90
2019-05-28T04:15:49.323Z,13.90
2019-05-28T04:18:18.304Z,13.91
2019-05-28T04:20:47.137Z,13.90
2019-05-28T04:23:16.461Z,13.89
2019-05-28T04:25:46.272Z,13.90
2019-05-28T04:28:15.229Z,13.90
2019-05-28T04:30:44.595Z,13.87
2019-05-28T04:33:13.567Z,13.85
2019-05-28T04:35:42.532Z,13.83
2019-05-28T04:38:11.459Z,13.83
2019-05-28T04:40:40.324Z,13.80
2019-05-28T04:43:09.279Z,13.77
2019-05-28T04:45:38.397Z,13.74
2019-05-28T04:48:07.587Z,13.72
2019-05-28T04:50:36.450Z,13.69
2019-05-28T04:53:05.415Z,13.65
2019-05-28T04:55:34.562Z,13.61
2019-05-28T04:58:03.500Z,13.55
2019-05-28T05:00:32.639Z,13.51
2019-05-28T05:03:01.586Z,13.52
2019-05-28T05:05:30.514Z,13.51
2019-05-28T05:07:59.449Z,13.46
2019-05-28T05:10:28.388Z,13.42
2019-05-28T05:12:57.165Z,13.36
2019-05-28T05:15:26.295Z,13.30
2019-05-28T05:17:55.344Z,13.21
2019-05-28T05:20:24.397Z,13.06
2019-05-28T05:22:53.322Z,12.96
2019-05-28T05:25:22.447Z,13.04
2019-05-28T05:27:52.070Z,13.09
2019-05-28T05:30:20.923Z,13.08
2019-05-28T05:32:49.986Z,13.11
2019-05-28T05:35:19.895Z,13.22
2019-05-28T05:37:48.754Z,13.28
2019-05-28T05:40:17.995Z,13.33
2019-05-28T05:42:47.410Z,13.34
2019-05-28T05:45:16.378Z,13.34
2019-05-28T05:47:45.230Z,13.32
2019-05-28T05:50:14.406Z,13.31
2019-05-28T05:52:43.325Z,13.35
2019-05-28T05:55:12.478Z,13.39
2019-05-28T05:57:42.066Z,13.39
2019-05-28T06:00:11.904Z,13.39
2019-05-28T06:02:41.054Z,13.42
2019-05-28T06:05:10.277Z,13.44
2019-05-28T06:07:39.322Z,13.41
2019-05-28T06:10:08.761Z,13.40
2019-05-28T06:12:37.590Z,13.56
2019-05-28T06:15:06.955Z,13.65
2019-05-28T06:17:36.672Z,13.72
2019-05-28T06:20:07.572Z,13.80
2019-05-28T06:22:36.884Z,13.97
2019-05-28T06:25:06.202Z,14.11
2019-05-28T06:27:35.696Z,14.15
2019-05-28T06:30:06.102Z,14.18
2019-05-28T06:32:36.238Z,14.27
2019-05-28T06:35:06.339Z,14.32
2019-05-28T06:37:35.286Z,14.38
2019-05-28T06:40:04.717Z,14.48
2019-05-28T06:42:38.798Z,14.55
2019-05-28T06:45:05.110Z,14.57
2019-05-28T06:47:33.950Z,14.54
2019-05-28T06:50:03.109Z,14.55
2019-05-28T06:52:32.071Z,14.60
2019-05-28T06:55:01.272Z,14.63
2019-05-28T06:57:30.474Z,14.67
2019-05-28T06:59:59.437Z,14.61
2019-05-28T07:02:28.287Z,14.58
2019-05-28T07:04:58.266Z,14.60
2019-05-28T07:07:27.400Z,14.54
2019-05-28T07:09:56.492Z,14.64
2019-05-28T07:12:25.364Z,14.71
2019-05-28T07:14:54.549Z,14.72
2019-05-28T07:17:23.759Z,14.74
2019-05-28T07:19:52.766Z,14.79
2019-05-28T07:22:22.250Z,14.78
2019-05-28T07:24:51.503Z,14.77
2019-05-28T07:27:20.361Z,14.83
2019-05-28T07:29:49.208Z,15.00
2019-05-28T07:32:18.463Z,15.29
2019-05-28T07:34:47.367Z,15.59
2019-05-28T07:37:16.184Z,15.89
2019-05-28T07:39:45.135Z,16.23
2019-05-28T07:42:14.478Z,16.46
2019-05-28T07:44:43.327Z,16.55
2019-05-28T07:47:12.195Z,16.72
2019-05-28T07:49:41.433Z,17.03
2019-05-28T07:52:10.626Z,17.34
2019-05-28T07:54:39.714Z,17.52
2019-05-28T07:57:08.763Z,17.75
2019-05-28T07:59:37.694Z,17.79
2019-05-28T08:02:06.730Z,17.76
2019-05-28T08:04:46.683Z,17.69
2019-05-28T08:07:06.396Z,17.70
2019-05-28T08:09:35.278Z,17.72
2019-05-28T08:12:04.525Z,17.78
2019-05-28T08:14:33.812Z,17.93
2019-05-28T08:17:02.694Z,18.18
2019-05-28T08:19:31.586Z,18.41
2019-05-28T08:22:00.864Z,18.64
2019-05-28T08:24:30.356Z,18.77
2019-05-28T08:26:59.860Z,18.85
2019-05-28T08:29:29.364Z,18.97
2019-05-28T08:31:58.285Z,19.17
2019-05-28T08:34:27.162Z,19.48
2019-05-28T08:37:06.039Z,19.84
2019-05-28T08:39:27.020Z,20.01
2019-05-28T08:41:56.481Z,19.92
2019-05-28T08:44:25.876Z,19.77
2019-05-28T08:46:54.816Z,19.37
2019-05-28T08:49:24.195Z,19.02
2019-05-28T08:51:53.515Z,18.69
2019-05-28T08:54:22.407Z,18.50
2019-05-28T08:56:51.418Z,18.38
2019-05-28T08:59:20.664Z,18.11
2019-05-28T09:01:49.525Z,17.77
2019-05-28T09:04:18.829Z,17.44
2019-05-28T09:06:47.694Z,17.22
2019-05-28T09:09:16.557Z,16.97
2019-05-28T09:11:45.846Z,16.74
2019-05-28T09:14:15.091Z,16.57
2019-05-28T09:16:44.225Z,16.49
2019-05-28T09:19:13.133Z,16.36
2019-05-28T09:21:42.116Z,16.44
2019-05-28T09:24:10.994Z,16.60
2019-05-28T09:26:39.999Z,16.64
2019-05-28T09:29:08.847Z,16.80
2019-05-28T09:31:38.402Z,17.52
2019-05-28T09:34:07.731Z,17.52
2019-05-28T09:36:37.192Z,17.74
2019-05-28T09:39:08.188Z,17.90
2019-05-28T09:41:37.121Z,17.99
2019-05-28T09:44:06.265Z,17.83
2019-05-28T09:46:35.173Z,17.39
2019-05-28T09:49:04.413Z,17.30
2019-05-28T09:51:33.324Z,17.23
2019-05-28T09:54:02.288Z,17.25
2019-05-28T09:56:32.781Z,17.26
2019-05-28T09:59:02.032Z,17.28
2019-05-28T10:01:30.934Z,16.88
2019-05-28T10:04:00.437Z,16.49
2019-05-28T10:06:37.200Z,16.28
2019-05-28T10:09:00.598Z,16.28
2019-05-28T10:11:30.095Z,16.28
2019-05-28T10:13:58.962Z,16.29
2019-05-28T10:16:28.147Z,16.27
2019-05-28T10:18:56.996Z,16.43
2019-05-28T10:21:26.234Z,16.62
2019-05-28T10:23:55.142Z,16.64
2019-05-28T10:26:24.456Z,16.66
2019-05-28T10:28:53.635Z,16.74
2019-05-28T10:31:22.471Z,16.73
2019-05-28T10:33:51.938Z,16.83
2019-05-28T10:36:34.945Z,16.93
2019-05-28T10:38:51.444Z,16.84
2019-05-28T10:41:20.604Z,16.97
2019-05-28T10:43:49.850Z,17.08
2019-05-28T10:46:18.783Z,16.93
2019-05-28T10:48:47.654Z,16.65
2019-05-28T10:51:16.571Z,16.58
2019-05-28T10:53:45.438Z,16.60
2019-05-28T10:56:14.295Z,16.62
2019-05-28T10:58:43.236Z,16.53
2019-05-28T11:01:12.175Z,16.47
2019-05-28T11:03:41.131Z,16.31
2019-05-28T11:06:10.130Z,16.16
2019-05-28T11:08:39.071Z,15.94
2019-05-28T11:11:08.282Z,15.56
2019-05-28T11:13:52.129Z,15.18
2019-05-28T11:16:07.903Z,15.00
2019-05-28T11:18:36.808Z,14.93
2019-05-28T11:21:09.812Z,14.82
2019-05-28T11:23:36.663Z,14.69
2019-05-28T11:26:06.215Z,14.60
2019-05-28T11:28:35.118Z,14.67
2019-05-28T11:31:03.962Z,14.67
2019-05-28T11:33:33.492Z,14.59
2019-05-28T11:36:02.595Z,14.66
2019-05-28T11:38:31.510Z,14.70
2019-05-28T11:41:00.931Z,14.76
2019-05-28T11:43:29.779Z,14.71
2019-05-28T11:45:59.037Z,14.66
2019-05-28T11:48:28.122Z,14.66
2019-05-28T11:50:57.065Z,14.70
2019-05-28T11:53:26.312Z,14.71
2019-05-28T11:55:55.285Z,14.72
2019-05-28T11:58:24.289Z,14.69
2019-05-28T12:00:53.216Z,14.67
2019-05-28T12:03:22.074Z,14.67
2019-05-28T12:05:51.422Z,14.64
2019-05-28T12:08:20.348Z,14.61
2019-05-28T12:10:49.219Z,14.56
2019-05-28T12:13:18.012Z,14.47
2019-05-28T12:15:46.945Z,14.37
2019-05-28T12:18:15.799Z,14.27
2019-05-28T12:20:44.730Z,14.10
2019-05-28T12:23:13.591Z,13.85
2019-05-28T12:25:42.588Z,13.64
2019-05-28T12:28:11.771Z,13.54
2019-05-28T12:30:40.611Z,13.50
2019-05-28T12:33:09.736Z,13.56
2019-05-28T12:35:42.666Z,13.65
2019-05-28T12:38:10.194Z,13.77
2019-05-28T12:40:47.958Z,13.83
2019-05-28T12:43:10.152Z,13.89
2019-05-28T12:45:39.275Z,13.97
2019-05-28T12:48:12.627Z,14.07
2019-05-28T12:50:38.757Z,14.27
2019-05-28T12:53:08.231Z,14.48
2019-05-28T12:55:37.457Z,14.72
2019-05-28T12:58:06.656Z,14.94
2019-05-28T13:00:35.782Z,15.32
2019-05-28T13:03:05.397Z,15.86
2019-05-28T13:05:34.572Z,16.37
2019-05-28T13:08:09.202Z,16.71
2019-05-28T13:10:34.433Z,16.89
2019-05-28T13:13:03.317Z,17.04
2019-05-28T13:15:32.282Z,17.23
2019-05-28T13:18:01.432Z,17.43
2019-05-28T13:20:30.327Z,17.55
2019-05-28T13:22:59.535Z,17.71
2019-05-28T13:25:28.721Z,17.87
2019-05-28T13:27:57.586Z,17.77
2019-05-28T13:30:26.443Z,17.79
2019-05-28T13:32:55.490Z,17.90
2019-05-28T13:35:24.904Z,17.76
2019-05-28T13:37:54.088Z,17.86
2019-05-28T13:40:23.302Z,18.07
2019-05-28T13:42:52.324Z,18.12
2019-05-28T13:45:21.399Z,18.14
2019-05-28T13:47:50.586Z,18.17
2019-05-28T13:50:20.103Z,18.14
2019-05-28T13:52:48.941Z,17.86
2019-05-28T13:55:18.467Z,17.73
2019-05-28T13:57:47.693Z,17.39
2019-05-28T14:00:17.144Z,17.19
2019-05-28T14:02:46.783Z,17.14
2019-05-28T14:05:18.939Z,16.90
2019-05-28T14:07:48.447Z,16.69
2019-05-28T14:10:17.738Z,16.48
2019-05-28T14:12:46.779Z,16.29
2019-05-28T14:15:15.791Z,16.10
2019-05-28T14:17:44.709Z,15.87
2019-05-28T14:20:14.193Z,15.69
2019-05-28T14:22:43.460Z,15.56
2019-05-28T14:25:12.756Z,15.41
2019-05-28T14:27:42.057Z,15.32
2019-05-28T14:30:12.809Z,15.21
2019-05-28T14:32:41.638Z,15.17
2019-05-28T14:35:10.741Z,15.24
2019-05-28T14:37:40.188Z,15.27
2019-05-28T14:40:11.928Z,15.24
2019-05-28T14:42:40.841Z,15.02
2019-05-28T14:45:10.623Z,14.85
2019-05-28T14:47:40.247Z,14.80
2019-05-28T14:50:09.897Z,14.70
2019-05-28T14:52:39.565Z,14.62
2019-05-28T14:55:08.693Z,14.54
2019-05-28T14:57:37.697Z,14.44
2019-05-28T15:00:07.096Z,14.40
2019-05-28T15:02:36.059Z,14.32
2019-05-28T15:05:05.882Z,14.30
2019-05-28T15:07:34.685Z,14.28
2019-05-28T15:10:03.846Z,14.25
2019-05-28T15:12:32.745Z,14.24
2019-05-28T15:15:02.343Z,14.18
2019-05-28T15:17:31.222Z,14.20
2019-05-28T15:20:00.191Z,14.21
2019-05-28T15:22:29.048Z,14.21
2019-05-28T15:24:58.006Z,14.20
2019-05-28T15:27:26.861Z,14.06
2019-05-28T15:29:56.013Z,13.91
2019-05-28T15:32:24.885Z,13.69
2019-05-28T15:34:53.744Z,13.56
2019-05-28T15:37:22.723Z,13.45
2019-05-28T15:39:51.770Z,13.38
2019-05-28T15:42:21.113Z,13.21
2019-05-28T15:44:50.261Z,13.10
2019-05-28T15:47:19.480Z,12.98
2019-05-28T15:49:48.657Z,12.91
2019-05-28T15:52:17.513Z,12.91
2019-05-28T15:54:46.737Z,12.89
2019-05-28T15:57:15.739Z,12.94
2019-05-28T15:59:44.619Z,12.96
2019-05-28T16:02:13.558Z,12.97
2019-05-28T16:04:43.315Z,12.80
2019-05-28T16:07:12.273Z,12.76
2019-05-28T16:09:55.051Z,12.81
2019-05-28T16:12:12.726Z,12.87
2019-05-28T16:14:41.696Z,12.91
2019-05-28T16:17:10.554Z,12.95
2019-05-28T16:19:39.486Z,13.03
2019-05-28T16:22:08.347Z,13.09
2019-05-28T16:24:37.221Z,13.13
2019-05-28T16:27:06.429Z,13.21
2019-05-28T16:29:35.386Z,13.29
2019-05-28T16:32:04.317Z,13.30
2019-05-28T16:34:33.261Z,13.32
2019-05-28T16:37:02.776Z,13.35
2019-05-28T16:39:31.747Z,13.36
2019-05-28T16:42:00.647Z,13.41
2019-05-28T16:44:29.446Z,13.48
2019-05-28T16:47:16.266Z,13.46
2019-05-28T16:49:29.259Z,13.42
2019-05-28T16:51:58.403Z,13.44
2019-05-28T16:54:27.297Z,13.48
2019-05-28T16:56:56.540Z,13.53
2019-05-28T16:59:25.442Z,13.60
2019-05-28T17:01:54.326Z,13.68
2019-05-28T17:04:23.282Z,13.74
2019-05-28T17:06:52.056Z,13.75
2019-05-28T17:09:20.934Z,13.67
2019-05-28T17:11:49.820Z,13.62
2019-05-28T17:14:18.664Z,13.63
2019-05-28T17:16:47.568Z,13.63
2019-05-28T17:19:16.518Z,13.68
2019-05-28T17:21:45.692Z,13.69
2019-05-28T17:24:14.576Z,13.70
2019-05-28T17:26:43.764Z,13.65
2019-05-28T17:29:12.718Z,13.62
2019-05-28T17:31:41.788Z,13.53
2019-05-28T17:34:10.765Z,13.49
2019-05-28T17:36:39.614Z,13.48
2019-05-28T17:39:08.980Z,13.46
2019-05-28T17:41:37.886Z,13.48
2019-05-28T17:44:06.819Z,13.50
2019-05-28T17:46:35.684Z,13.52
2019-05-28T17:49:05.143Z,13.55
2019-05-28T17:51:34.062Z,13.53
2019-05-28T17:54:03.985Z,13.53
2019-05-28T17:56:33.565Z,13.54
2019-05-28T17:59:02.742Z,13.54
2019-05-28T18:01:31.686Z,13.58
2019-05-28T18:04:00.590Z,13.60
2019-05-28T18:06:29.528Z,13.57
2019-05-28T18:08:58.830Z,13.52
2019-05-28T18:11:27.672Z,13.46
2019-05-28T18:13:56.574Z,13.42
2019-05-28T18:16:25.513Z,13.41
2019-05-28T18:18:54.378Z,13.37
2019-05-28T18:21:23.266Z,13.27
2019-05-28T18:23:52.158Z,13.18
2019-05-28T18:26:21.020Z,13.13
2019-05-28T18:28:50.254Z,13.12
2019-05-28T18:31:19.124Z,13.12
2019-05-28T18:33:48.232Z,13.07
2019-05-28T18:36:17.165Z,13.02
2019-05-28T18:38:46.047Z,12.98
2019-05-28T18:41:21.564Z,12.95
2019-05-28T18:43:46.163Z,12.90
2019-05-28T18:46:15.736Z,12.90
2019-05-28T18:48:44.700Z,12.92
2019-05-28T18:51:13.977Z,12.93
2019-05-28T18:53:42.946Z,12.90
2019-05-28T18:56:17.535Z,12.82
2019-05-28T18:58:42.636Z,12.77
2019-05-28T19:01:11.490Z,12.78
2019-05-28T19:03:40.478Z,12.74
2019-05-28T19:06:09.416Z,12.69
2019-05-28T19:08:38.265Z,12.61
2019-05-28T19:11:07.262Z,12.55
2019-05-28T19:13:36.272Z,12.48
2019-05-28T19:16:05.240Z,12.46
2019-05-28T19:18:34.030Z,12.45
2019-05-28T19:21:02.975Z,12.42
2019-05-28T19:23:31.929Z,12.41
2019-05-28T19:26:01.281Z,12.40
2019-05-28T19:28:30.142Z,12.37
2019-05-28T19:30:58.912Z,12.36
2019-05-28T19:33:27.850Z,12.36
2019-05-28T19:35:56.953Z,12.37
2019-05-28T19:38:26.062Z,12.34
2019-05-28T19:40:55.236Z,12.30
2019-05-28T19:43:24.524Z,12.30
2019-05-28T19:45:54.169Z,12.31
2019-05-28T19:48:23.351Z,12.29
2019-05-28T19:50:52.209Z,12.30
2019-05-28T19:53:21.172Z,12.36
2019-05-28T19:55:50.007Z,12.39
2019-05-28T19:58:19.050Z,12.43
2019-05-28T20:00:48.226Z,12.45
2019-05-28T20:03:17.075Z,12.46
2019-05-28T20:05:46.009Z,12.43
2019-05-28T20:08:14.904Z,12.41
2019-05-28T20:10:44.092Z,12.41
2019-05-28T20:13:13.043Z,12.45
2019-05-28T20:15:41.979Z,12.41
2019-05-28T20:18:25.897Z,12.43
2019-05-28T20:20:41.854Z,12.43
2019-05-28T20:23:11.309Z,12.41
2019-05-28T20:25:40.059Z,12.42
2019-05-28T20:28:09.241Z,12.41
2019-05-28T20:30:38.195Z,12.40
2019-05-28T20:33:07.453Z,12.44
2019-05-28T20:35:36.400Z,12.49
2019-05-28T20:38:08.993Z,12.50
2019-05-28T20:40:36.033Z,12.51
2019-05-28T20:43:06.104Z,12.48
2019-05-28T20:45:35.047Z,12.48
2019-05-28T20:48:04.704Z,12.49
2019-05-28T20:50:33.904Z,12.50
2019-05-28T20:53:02.795Z,12.50
2019-05-28T20:55:31.926Z,12.49
2019-05-28T20:58:00.789Z,12.49
2019-05-28T21:00:30.123Z,12.47
2019-05-28T21:02:59.310Z,12.44
2019-05-28T21:05:28.519Z,12.41
2019-05-28T21:07:58.391Z,12.37
2019-05-28T21:10:27.438Z,12.33
2019-05-28T21:12:56.987Z,12.29
2019-05-28T21:15:25.818Z,12.23
2019-05-28T21:17:55.421Z,12.16
2019-05-28T21:20:24.439Z,12.12
2019-05-28T21:22:53.766Z,12.08
2019-05-28T21:25:22.999Z,12.04
2019-05-28T21:27:52.510Z,12.00
2019-05-28T21:30:21.617Z,11.96
2019-05-28T21:32:50.663Z,11.91
2019-05-28T21:35:19.631Z,11.86
2019-05-28T21:37:48.487Z,11.79
2019-05-28T21:40:17.531Z,11.74
2019-05-28T21:42:58.605Z,11.64
2019-05-28T21:45:18.843Z,11.52
2019-05-28T21:47:47.951Z,11.45
2019-05-28T21:50:17.326Z,11.41
2019-05-28T21:52:46.097Z,11.31
2019-05-28T21:55:15.571Z,11.27
2019-05-28T21:57:44.545Z,11.22
2019-05-28T22:00:21.202Z,11.16
2019-05-28T22:02:50.146Z,11.09
2019-05-28T22:05:19.067Z,11.05
2019-05-28T22:07:48.032Z,11.00
2019-05-28T22:10:16.970Z,10.92
2019-05-28T22:12:45.874Z,10.87
2019-05-28T22:15:15.459Z,10.81
2019-05-28T22:17:44.744Z,10.79
2019-05-28T22:20:14.156Z,10.78
2019-05-28T22:22:43.762Z,10.72
2019-05-28T22:25:12.964Z,10.64
2019-05-28T22:27:41.929Z,10.62
2019-05-28T22:30:11.968Z,10.60
2019-05-28T22:32:40.842Z,10.61
2019-05-28T22:35:10.264Z,10.61
2019-05-28T22:37:39.266Z,10.62
2019-05-28T22:40:08.489Z,10.62
2019-05-28T22:42:37.852Z,10.60
2019-05-28T22:45:07.212Z,10.60
2019-05-28T22:47:36.186Z,10.56
2019-05-28T22:50:20.482Z,10.52
2019-05-28T22:52:35.960Z,10.50
2019-05-28T22:55:05.974Z,10.46
2019-05-28T22:57:35.114Z,10.43
2019-05-28T23:00:04.682Z,10.42
2019-05-28T23:02:33.508Z,10.40
2019-05-28T23:05:03.188Z,10.38
2019-05-28T23:07:32.011Z,10.35
2019-05-28T23:10:01.575Z,10.32
2019-05-28T23:12:30.903Z,10.30
2019-05-28T23:14:59.834Z,10.30
2019-05-28T23:17:28.969Z,10.27
2019-05-28T23:19:57.896Z,10.25
2019-05-28T23:22:26.858Z,10.22
2019-05-28T23:24:56.163Z,10.17
2019-05-28T23:27:24.965Z,10.14
2019-05-28T23:29:53.889Z,10.12
2019-05-28T23:32:22.783Z,10.07
2019-05-28T23:34:52.153Z,10.03
2019-05-28T23:37:21.328Z,9.99
2019-05-28T23:39:50.183Z,9.96
2019-05-28T23:42:19.123Z,9.96
2019-05-28T23:44:48.718Z,9.94
2019-05-28T23:47:17.678Z,9.91
2019-05-28T23:49:46.540Z,9.89
2019-05-28T23:52:15.419Z,9.85
2019-05-28T23:54:44.486Z,9.83
2019-05-28T23:57:14.041Z,9.77
2019-05-28T23:59:42.939Z,9.73
